Time;durP1;ratioP1;P1;durP2;ratioP2;P2;SDS_P1;SDS_P2;PMS_P1;PMS_P2;Temp;Humidity;BMP_temperature;BMP_pressure;BME280_temperature;BME280_humidity;BME280_pressure;Samples;Min_cycle;Max_cycle;Signal;HPM_P1;HPM_P2
2022/03/07 00:02:12;;;;;;;26.45;18.98;;;;;;;;;;4993797;28;20044;-68
2022/03/07 00:04:39;;;;;;;29.13;20.25;;;;;;;;;;4992260;28;20054;-68
2022/03/07 00:07:07;;;;;;;28.75;21.25;;;;;;;;;;4976944;28;20046;-68
2022/03/07 00:09:34;;;;;;;27.05;20.92;;;;;;;;;;4993759;28;20050;-68
2022/03/07 00:12:03;;;;;;;28.05;21.38;;;;;;;;;;4992874;28;20125;-68
2022/03/07 00:14:31;;;;;;;28.60;21.10;;;;;;;;;;4993245;28;20050;-68
2022/03/07 00:17:00;;;;;;;29.27;22.20;;;;;;;;;;4992290;28;20105;-69
2022/03/07 00:19:29;;;;;;;25.83;19.67;;;;;;;;;;4996401;28;20077;-69
2022/03/07 00:21:57;;;;;;;25.60;19.92;;;;;;;;;;4980880;28;20039;-69
2022/03/07 00:24:24;;;;;;;28.02;19.20;;;;;;;;;;4996425;28;20145;-69
2022/03/07 00:26:52;;;;;;;25.63;21.23;;;;;;;;;;4996198;28;20621;-68
2022/03/07 00:29:19;;;;;;;32.55;20.83;;;;;;;;;;4996094;28;20051;-69
2022/03/07 00:31:48;;;;;;;31.10;21.27;;;;;;;;;;4981340;28;20105;-69
2022/03/07 00:34:17;;;;;;;25.60;19.85;;;;;;;;;;4996233;28;20050;-69
2022/03/07 00:36:45;;;;;;;28.25;19.30;;;;;;;;;;4996625;28;20149;-69
2022/03/07 00:39:13;;;;;;;23.52;18.70;;;;;;;;;;4997755;28;20481;-69
2022/03/07 00:41:42;;;;;;;22.92;17.48;;;;;;;;;;4980956;28;20117;-70
2022/03/07 00:44:10;;;;;;;26.48;18.98;;;;;;;;;;4996197;28;20054;-69
2022/03/07 00:46:37;;;;;;;26.52;18.95;;;;;;;;;;4998160;28;20045;-69
2022/03/07 00:49:05;;;;;;;21.95;17.98;;;;;;;;;;4996250;28;20057;-69
2022/03/07 00:51:33;;;;;;;26.35;18.55;;;;;;;;;;4997275;28;20125;-69
2022/03/07 00:54:01;;;;;;;23.40;18.98;;;;;;;;;;4995792;28;20465;-69
2022/03/07 00:56:29;;;;;;;27.65;20.05;;;;;;;;;;4977427;28;20100;-68
2022/03/07 00:58:57;;;;;;;22.33;18.02;;;;;;;;;;4968036;28;20561;-69
2022/03/07 01:01:26;;;;;;;24.20;16.50;;;;;;;;;;4961794;28;20094;-69
2022/03/07 01:03:54;;;;;;;29.58;18.75;;;;;;;;;;4966626;28;20054;-68
2022/03/07 01:06:22;;;;;;;27.27;19.25;;;;;;;;;;4979618;28;20065;-68
2022/03/07 01:08:49;;;;;;;23.77;17.10;;;;;;;;;;4997403;28;20050;-68
2022/03/07 01:11:17;;;;;;;22.17;16.80;;;;;;;;;;4996115;28;20133;-69
2022/03/07 01:13:45;;;;;;;20.85;17.33;;;;;;;;;;4997027;28;20140;-68
2022/03/07 01:16:12;;;;;;;22.65;17.40;;;;;;;;;;4997211;28;20445;-69
2022/03/07 01:18:41;;;;;;;22.52;18.98;;;;;;;;;;4996071;28;20054;-68
2022/03/07 01:21:09;;;;;;;24.95;17.08;;;;;;;;;;4997097;28;20049;-68
2022/03/07 01:23:36;;;;;;;20.38;16.58;;;;;;;;;;4995932;28;20480;-69
2022/03/07 01:26:04;;;;;;;23.17;18.60;;;;;;;;;;4996961;28;20086;-69
2022/03/07 01:28:32;;;;;;;22.85;17.67;;;;;;;;;;4996058;28;20041;-68
2022/03/07 01:30:59;;;;;;;22.85;17.42;;;;;;;;;;4995818;28;20101;-68
2022/03/07 01:33:27;;;;;;;24.52;15.70;;;;;;;;;;4979558;28;20413;-67
2022/03/07 01:35:55;;;;;;;19.98;16.90;;;;;;;;;;4995488;28;20077;-69
2022/03/07 01:38:22;;;;;;;17.17;14.43;;;;;;;;;;4979401;28;20050;-69
2022/03/07 01:40:50;;;;;;;22.52;17.63;;;;;;;;;;4963642;28;20046;-68
2022/03/07 01:43:19;;;;;;;22.65;16.40;;;;;;;;;;4979395;28;20054;-68
2022/03/07 01:45:47;;;;;;;20.05;15.73;;;;;;;;;;4996336;28;20101;-68
2022/03/07 01:48:14;;;;;;;18.48;14.45;;;;;;;;;;4995284;28;20052;-68
2022/03/07 01:50:43;;;;;;;19.10;15.43;;;;;;;;;;4995139;28;20045;-68
2022/03/07 01:53:11;;;;;;;23.02;16.08;;;;;;;;;;5011451;28;20050;-68
2022/03/07 01:55:38;;;;;;;20.35;15.60;;;;;;;;;;4994856;28;20082;-68
2022/03/07 01:58:07;;;;;;;25.20;18.80;;;;;;;;;;4995168;28;20134;-68
2022/03/07 02:00:35;;;;;;;20.42;15.57;;;;;;;;;;4994665;28;20494;-67
2022/03/07 02:03:04;;;;;;;22.63;16.52;;;;;;;;;;5011455;28;20043;-68
2022/03/07 02:05:45;;;;;;;19.88;14.52;;;;;;;;;;4975376;28;20062;-68
2022/03/07 02:08:19;;;;;;;17.77;13.95;;;;;;;;;;4999082;28;20058;-68
2022/03/07 02:10:51;;;;;;;16.17;13.33;;;;;;;;;;4991760;28;20046;-68
2022/03/07 02:13:21;;;;;;;21.20;16.10;;;;;;;;;;5007959;28;20317;-67
2022/03/07 02:15:55;;;;;;;20.67;15.07;;;;;;;;;;4994906;28;20054;-68
2022/03/07 02:18:28;;;;;;;21.55;16.63;;;;;;;;;;4987963;28;20491;-68
2022/03/07 02:21:09;;;;;;;19.70;14.98;;;;;;;;;;4973071;28;20054;-69
2022/03/07 02:23:58;;;;;;;18.67;14.52;;;;;;;;;;4995192;28;20050;-69
2022/03/07 02:26:27;;;;;;;16.15;14.07;;;;;;;;;;4991666;28;20127;-70
2022/03/07 02:28:55;;;;;;;17.50;14.05;;;;;;;;;;4998048;28;20090;-69
2022/03/07 02:31:26;;;;;;;21.25;13.63;;;;;;;;;;4991521;28;20050;-69
2022/03/07 02:33:55;;;;;;;20.45;13.75;;;;;;;;;;4986131;28;20396;-69
2022/03/07 02:36:23;;;;;;;17.70;12.88;;;;;;;;;;4988282;28;20058;-70
2022/03/07 02:38:51;;;;;;;21.92;14.32;;;;;;;;;;5008971;28;20054;-69
2022/03/07 02:41:20;;;;;;;22.20;14.05;;;;;;;;;;4994993;28;20042;-69
2022/03/07 02:43:50;;;;;;;16.40;13.05;;;;;;;;;;4994818;28;20058;-70
2022/03/07 02:46:19;;;;;;;18.25;13.38;;;;;;;;;;4995266;28;20070;-70
2022/03/07 02:48:47;;;;;;;17.55;13.18;;;;;;;;;;4994103;28;20046;-69
2022/03/07 02:51:17;;;;;;;19.95;14.65;;;;;;;;;;4994941;28;20141;-69
2022/03/07 02:53:45;;;;;;;19.63;13.68;;;;;;;;;;4993526;28;20046;-69
2022/03/07 02:56:12;;;;;;;19.20;14.00;;;;;;;;;;4994683;28;20054;-69
2022/03/07 02:58:40;;;;;;;20.08;15.70;;;;;;;;;;4993557;28;20085;-69
2022/03/07 03:01:07;;;;;;;18.05;14.02;;;;;;;;;;4994359;28;20047;-69
2022/03/07 03:03:35;;;;;;;20.77;15.60;;;;;;;;;;4993536;28;20129;-69
2022/03/07 03:06:04;;;;;;;17.33;13.40;;;;;;;;;;4994858;28;20445;-69
2022/03/07 03:08:31;;;;;;;19.83;14.95;;;;;;;;;;4993542;28;20133;-68
2022/03/07 03:10:59;;;;;;;22.65;14.95;;;;;;;;;;4993300;28;20058;-68
2022/03/07 03:13:27;;;;;;;19.20;14.15;;;;;;;;;;4994844;28;20094;-67
2022/03/07 03:15:55;;;;;;;19.00;15.23;;;;;;;;;;4994731;28;20050;-67
2022/03/07 03:18:23;;;;;;;19.88;14.60;;;;;;;;;;4993439;28;20125;-67
2022/03/07 03:20:53;;;;;;;21.80;15.02;;;;;;;;;;4994459;28;20468;-67
2022/03/07 03:23:25;;;;;;;18.25;13.60;;;;;;;;;;4994664;28;20046;-67
2022/03/07 03:25:54;;;;;;;22.58;14.45;;;;;;;;;;4995188;28;20050;-67
2022/03/07 03:28:23;;;;;;;17.80;14.23;;;;;;;;;;4993792;28;20074;-67
2022/03/07 03:30:52;;;;;;;17.55;13.10;;;;;;;;;;4994307;28;20137;-67
2022/03/07 03:33:20;;;;;;;21.15;12.27;;;;;;;;;;4993024;28;20054;-67
2022/03/07 03:35:48;;;;;;;19.08;13.65;;;;;;;;;;4994297;28;20058;-67
2022/03/07 03:38:16;;;;;;;16.88;12.55;;;;;;;;;;4994717;28;20421;-67
2022/03/07 03:40:43;;;;;;;19.73;13.85;;;;;;;;;;4994936;28;20101;-67
2022/03/07 03:43:10;;;;;;;17.23;12.45;;;;;;;;;;4993317;28;20043;-67
2022/03/07 03:45:38;;;;;;;16.70;12.57;;;;;;;;;;4992803;28;20078;-67
2022/03/07 03:48:06;;;;;;;17.92;12.88;;;;;;;;;;4994080;28;20061;-67
2022/03/07 03:50:33;;;;;;;21.13;13.13;;;;;;;;;;4993460;28;20046;-66
2022/03/07 03:53:02;;;;;;;18.95;14.60;;;;;;;;;;4987672;28;20395;-67
2022/03/07 03:55:29;;;;;;;22.92;13.80;;;;;;;;;;4974864;28;20047;-67
2022/03/07 03:57:57;;;;;;;18.67;15.15;;;;;;;;;;4981124;28;20133;-67
2022/03/07 04:00:24;;;;;;;17.50;14.40;;;;;;;;;;4993905;28;20049;-67
2022/03/07 04:02:51;;;;;;;14.02;11.35;;;;;;;;;;4993980;28;20038;-67
2022/03/07 04:05:19;;;;;;;16.77;12.55;;;;;;;;;;4992372;28;20058;-67
2022/03/07 04:07:46;;;;;;;16.58;12.82;;;;;;;;;;4985481;28;20077;-67
2022/03/07 04:10:14;;;;;;;20.50;14.57;;;;;;;;;;4986505;28;20093;-65
2022/03/07 04:12:43;;;;;;;15.00;12.73;;;;;;;;;;4990017;28;20058;-66
2022/03/07 04:15:11;;;;;;;21.80;14.05;;;;;;;;;;4979875;28;20094;-66
2022/03/07 04:17:40;;;;;;;17.67;13.82;;;;;;;;;;4985128;28;20042;-66
2022/03/07 04:20:09;;;;;;;20.88;15.40;;;;;;;;;;4976233;28;20133;-66
2022/03/07 04:22:37;;;;;;;19.10;13.77;;;;;;;;;;4983681;28;20051;-68
2022/03/07 04:25:06;;;;;;;16.55;13.45;;;;;;;;;;4982801;28;20047;-68
2022/03/07 04:27:34;;;;;;;21.00;14.13;;;;;;;;;;4982992;28;20050;-68
2022/03/07 04:30:03;;;;;;;18.77;13.98;;;;;;;;;;4976955;28;20072;-69
2022/03/07 04:32:30;;;;;;;16.95;13.95;;;;;;;;;;4985478;28;20051;-68
2022/03/07 04:34:58;;;;;;;18.60;13.98;;;;;;;;;;4977330;28;20129;-68
2022/03/07 04:37:26;;;;;;;19.88;15.65;;;;;;;;;;4987869;28;20410;-68
2022/03/07 04:39:53;;;;;;;23.05;15.50;;;;;;;;;;4987491;28;20129;-68
2022/03/07 04:42:21;;;;;;;19.17;15.27;;;;;;;;;;4985114;28;20046;-68
2022/03/07 04:44:48;;;;;;;21.27;15.52;;;;;;;;;;4976567;28;20529;-68
2022/03/07 04:47:15;;;;;;;19.48;15.05;;;;;;;;;;4986923;28;20050;-68
2022/03/07 04:49:43;;;;;;;18.77;13.43;;;;;;;;;;4988689;28;20042;-68
2022/03/07 04:52:10;;;;;;;18.60;12.57;;;;;;;;;;4990315;28;20049;-69
2022/03/07 04:54:37;;;;;;;24.50;15.90;;;;;;;;;;4985009;28;20080;-68
2022/03/07 04:57:05;;;;;;;19.95;14.55;;;;;;;;;;4985903;28;20053;-68
2022/03/07 04:59:33;;;;;;;19.40;11.90;;;;;;;;;;4981164;28;20047;-68
2022/03/07 05:02:00;;;;;;;19.55;14.75;;;;;;;;;;4980105;28;20714;-68
2022/03/07 05:04:28;;;;;;;17.83;13.77;;;;;;;;;;4988234;28;20054;-68
2022/03/07 05:06:56;;;;;;;20.55;14.40;;;;;;;;;;4991313;28;20513;-69
2022/03/07 05:09:24;;;;;;;20.33;15.38;;;;;;;;;;4991837;28;20413;-68
2022/03/07 05:11:52;;;;;;;24.65;16.13;;;;;;;;;;5005927;28;20061;-68
2022/03/07 05:14:19;;;;;;;22.38;13.73;;;;;;;;;;4991406;28;20100;-69
2022/03/07 05:16:46;;;;;;;19.88;13.65;;;;;;;;;;4989374;28;20458;-70
2022/03/07 05:19:14;;;;;;;16.92;13.02;;;;;;;;;;5000897;28;20043;-69
2022/03/07 05:21:42;;;;;;;21.70;15.43;;;;;;;;;;4993548;28;20502;-68
2022/03/07 05:24:09;;;;;;;18.90;15.02;;;;;;;;;;4992275;28;20122;-68
2022/03/07 05:26:38;;;;;;;19.75;13.55;;;;;;;;;;4991662;28;20078;-68
2022/03/07 05:29:07;;;;;;;19.33;13.52;;;;;;;;;;4980761;28;20570;-68
2022/03/07 05:31:34;;;;;;;21.08;14.20;;;;;;;;;;4989367;28;20050;-68
2022/03/07 05:34:01;;;;;;;21.25;14.05;;;;;;;;;;4997325;28;20138;-68
2022/03/07 05:36:29;;;;;;;23.65;16.65;;;;;;;;;;4987055;28;20109;-69
2022/03/07 05:38:56;;;;;;;24.88;17.80;;;;;;;;;;4987335;28;20084;-69
2022/03/07 05:41:23;;;;;;;18.38;15.05;;;;;;;;;;5001757;28;20046;-68
2022/03/07 05:43:51;;;;;;;22.95;15.32;;;;;;;;;;4983035;28;20046;-68
2022/03/07 05:46:19;;;;;;;24.20;18.50;;;;;;;;;;4985461;28;20035;-68
2022/03/07 05:48:46;;;;;;;23.30;17.58;;;;;;;;;;4991359;28;20060;-68
2022/03/07 05:51:15;;;;;;;23.13;17.38;;;;;;;;;;4982495;28;20496;-68
2022/03/07 05:53:43;;;;;;;20.10;16.02;;;;;;;;;;4991739;28;20483;-67
2022/03/07 05:56:11;;;;;;;23.85;16.50;;;;;;;;;;4992856;28;20085;-67
2022/03/07 05:58:38;;;;;;;27.30;17.65;;;;;;;;;;4981142;28;20109;-67
2022/03/07 06:01:06;;;;;;;21.42;16.95;;;;;;;;;;4979725;28;20043;-68
2022/03/07 06:03:34;;;;;;;29.40;20.50;;;;;;;;;;4992899;28;20050;-68
2022/03/07 06:06:01;;;;;;;29.83;20.05;;;;;;;;;;4978036;28;20387;-68
2022/03/07 06:08:29;;;;;;;26.65;18.67;;;;;;;;;;4985078;28;20050;-68
2022/03/07 06:10:57;;;;;;;30.85;20.42;;;;;;;;;;4995350;28;20054;-68
2022/03/07 06:13:26;;;;;;;28.52;18.60;;;;;;;;;;4995127;28;20053;-68
2022/03/07 06:15:53;;;;;;;27.33;16.95;;;;;;;;;;4982908;28;20050;-68
2022/03/07 06:18:20;;;;;;;21.77;17.13;;;;;;;;;;4996824;28;20046;-70
2022/03/07 06:20:48;;;;;;;22.50;16.15;;;;;;;;;;4985608;28;20046;-71
2022/03/07 06:23:15;;;;;;;23.52;18.13;;;;;;;;;;4998838;28;20055;-70
2022/03/07 06:25:42;;;;;;;24.23;17.08;;;;;;;;;;4996336;28;20054;-70
2022/03/07 06:28:09;;;;;;;29.17;19.17;;;;;;;;;;4996655;28;20077;-71
2022/03/07 06:30:38;;;;;;;29.92;17.75;;;;;;;;;;4983186;28;20038;-70
2022/03/07 06:33:06;;;;;;;23.88;18.23;;;;;;;;;;4999197;28;20051;-70
2022/03/07 06:35:33;;;;;;;26.63;19.55;;;;;;;;;;5000223;28;20050;-71
2022/03/07 06:38:00;;;;;;;21.77;16.63;;;;;;;;;;4997684;28;20146;-72
2022/03/07 06:40:29;;;;;;;26.30;17.65;;;;;;;;;;5000721;28;20050;-71
2022/03/07 06:43:00;;;;;;;26.23;17.58;;;;;;;;;;4996805;28;20050;-72
2022/03/07 06:45:29;;;;;;;22.05;16.17;;;;;;;;;;4993252;28;20133;-71
2022/03/07 06:47:59;;;;;;;26.00;18.15;;;;;;;;;;4988460;28;20410;-69
2022/03/07 06:50:29;;;;;;;18.58;14.18;;;;;;;;;;4980693;28;20081;-65
2022/03/07 06:52:58;;;;;;;27.23;15.82;;;;;;;;;;4986176;28;20133;-70
2022/03/07 06:55:25;;;;;;;27.05;18.00;;;;;;;;;;4982582;28;20074;-68
2022/03/07 06:57:53;;;;;;;20.60;15.90;;;;;;;;;;4979976;28;20047;-68
2022/03/07 07:00:21;;;;;;;26.98;19.67;;;;;;;;;;4988192;28;20135;-68
2022/03/07 07:02:48;;;;;;;23.30;17.70;;;;;;;;;;4992065;28;20084;-68
2022/03/07 07:05:17;;;;;;;26.48;17.92;;;;;;;;;;4991444;28;20467;-67
2022/03/07 07:07:45;;;;;;;23.67;15.95;;;;;;;;;;4978022;28;20051;-68
2022/03/07 07:10:18;;;;;;;24.15;16.77;;;;;;;;;;4976098;28;20053;-65
2022/03/07 07:12:49;;;;;;;25.88;17.17;;;;;;;;;;4974685;28;20079;-66
2022/03/07 07:15:17;;;;;;;24.50;17.40;;;;;;;;;;4989993;28;20544;-67
2022/03/07 07:17:45;;;;;;;24.63;17.27;;;;;;;;;;4991363;28;20050;-66
2022/03/07 07:20:12;;;;;;;21.77;17.13;;;;;;;;;;4990184;28;20505;-67
2022/03/07 07:22:40;;;;;;;26.75;17.05;;;;;;;;;;4990542;28;20042;-67
2022/03/07 07:25:08;;;;;;;30.83;18.88;;;;;;;;;;5002476;28;20589;-66
2022/03/07 07:27:38;;;;;;;27.25;17.42;;;;;;;;;;4991914;28;20469;-66
2022/03/07 07:30:09;;;;;;;23.67;17.70;;;;;;;;;;4990882;28;20034;-66
2022/03/07 07:32:38;;;;;;;26.27;15.82;;;;;;;;;;4990709;28;20553;-67
2022/03/07 07:35:09;;;;;;;24.17;16.23;;;;;;;;;;4991122;28;20046;-67
2022/03/07 07:37:37;;;;;;;26.30;17.70;;;;;;;;;;4991673;28;20058;-67
2022/03/07 07:40:07;;;;;;;24.48;16.23;;;;;;;;;;4993404;28;20050;-70
2022/03/07 07:42:35;;;;;;;30.33;17.52;;;;;;;;;;4991374;28;20053;-67
2022/03/07 07:45:09;;;;;;;37.75;18.25;;;;;;;;;;4991291;28;20050;-66
2022/03/07 07:47:37;;;;;;;22.88;18.25;;;;;;;;;;4992758;28;20066;-66
2022/03/07 07:50:06;;;;;;;26.10;18.83;;;;;;;;;;4992756;28;20056;-67
2022/03/07 07:52:33;;;;;;;24.67;18.23;;;;;;;;;;4975281;28;20047;-67
2022/03/07 07:55:05;;;;;;;29.42;19.25;;;;;;;;;;4981143;28;20046;-67
2022/03/07 07:57:32;;;;;;;23.27;16.33;;;;;;;;;;4992650;28;20049;-67
2022/03/07 08:00:00;;;;;;;22.40;15.73;;;;;;;;;;4993902;28;20536;-67
2022/03/07 08:02:50;;;;;;;23.20;17.10;;;;;;;;;;4992861;28;20065;-67
2022/03/07 08:05:19;;;;;;;19.23;15.18;;;;;;;;;;4982648;28;20073;-67
2022/03/07 08:07:46;;;;;;;23.35;16.58;;;;;;;;;;4993687;28;20051;-67
2022/03/07 08:10:23;;;;;;;29.27;17.20;;;;;;;;;;4993009;28;20108;-67
2022/03/07 08:12:50;;;;;;;17.02;13.98;;;;;;;;;;4993959;28;20401;-67
2022/03/07 08:15:19;;;;;;;23.58;15.05;;;;;;;;;;4977082;28;20097;-67
2022/03/07 08:17:49;;;;;;;20.35;15.45;;;;;;;;;;4992980;28;20073;-67
2022/03/07 08:20:20;;;;;;;17.33;13.57;;;;;;;;;;4993867;28;20050;-67
2022/03/07 08:22:47;;;;;;;21.00;12.93;;;;;;;;;;4993262;28;20050;-67
2022/03/07 08:25:15;;;;;;;22.85;15.88;;;;;;;;;;4992659;28;20473;-67
2022/03/07 08:27:43;;;;;;;21.83;14.10;;;;;;;;;;4992504;28;20161;-67
2022/03/07 08:30:12;;;;;;;15.57;13.18;;;;;;;;;;4993759;28;20050;-67
2022/03/07 08:32:42;;;;;;;16.13;13.25;;;;;;;;;;4982720;28;20059;-68
2022/03/07 08:35:12;;;;;;;18.27;13.55;;;;;;;;;;4974281;28;20506;-67
2022/03/07 08:37:45;;;;;;;17.02;13.25;;;;;;;;;;4977061;28;20129;-67
2022/03/07 08:40:14;;;;;;;19.60;14.95;;;;;;;;;;4977262;28;20094;-68
2022/03/07 08:42:43;;;;;;;16.30;13.05;;;;;;;;;;4992956;28;20081;-67
2022/03/07 08:45:16;;;;;;;19.23;14.02;;;;;;;;;;4996682;28;20105;-67
2022/03/07 08:47:44;;;;;;;21.15;14.93;;;;;;;;;;4978471;28;20073;-68
2022/03/07 08:50:12;;;;;;;18.98;14.27;;;;;;;;;;4978133;28;20047;-68
2022/03/07 08:52:40;;;;;;;19.20;12.48;;;;;;;;;;4978267;28;20050;-68
2022/03/07 08:55:08;;;;;;;16.02;13.68;;;;;;;;;;4977926;28;20057;-68
2022/03/07 08:57:35;;;;;;;30.13;15.52;;;;;;;;;;4977885;28;20054;-68
2022/03/07 09:00:09;;;;;;;20.20;14.45;;;;;;;;;;4977824;28;20517;-68
2022/03/07 09:02:47;;;;;;;15.73;13.50;;;;;;;;;;4976706;28;20074;-68
2022/03/07 09:05:16;;;;;;;19.65;14.27;;;;;;;;;;4977983;28;20062;-68
2022/03/07 09:07:44;;;;;;;20.35;14.18;;;;;;;;;;4978194;28;20039;-68
2022/03/07 09:10:12;;;;;;;16.65;14.18;;;;;;;;;;4980667;28;20532;-68
2022/03/07 09:12:39;;;;;;;22.25;16.02;;;;;;;;;;4977162;28;20074;-68
2022/03/07 09:15:07;;;;;;;19.23;13.85;;;;;;;;;;4985866;28;20078;-68
2022/03/07 09:17:35;;;;;;;21.20;14.77;;;;;;;;;;4977690;28;20085;-68
2022/03/07 09:20:03;;;;;;;18.00;15.40;;;;;;;;;;4993109;28;20049;-67
2022/03/07 09:22:31;;;;;;;25.23;15.57;;;;;;;;;;4976493;28;20422;-67
2022/03/07 09:24:59;;;;;;;18.35;14.73;;;;;;;;;;4977251;28;20055;-68
2022/03/07 09:27:26;;;;;;;19.00;14.90;;;;;;;;;;4976228;28;20047;-68
2022/03/07 09:29:53;;;;;;;22.15;14.45;;;;;;;;;;4993648;28;20065;-68
2022/03/07 09:32:21;;;;;;;17.13;13.65;;;;;;;;;;5008920;28;20097;-68
2022/03/07 09:34:49;;;;;;;19.80;14.98;;;;;;;;;;4991292;28;20038;-68
2022/03/07 09:37:17;;;;;;;19.85;15.20;;;;;;;;;;5011281;28;20061;-68
2022/03/07 09:39:44;;;;;;;18.35;14.55;;;;;;;;;;5011407;28;20081;-68
2022/03/07 09:42:13;;;;;;;16.55;14.75;;;;;;;;;;5011123;28;20058;-67
2022/03/07 09:44:41;;;;;;;20.67;14.18;;;;;;;;;;4984745;28;20162;-68
2022/03/07 09:47:09;;;;;;;17.67;14.65;;;;;;;;;;4976671;28;20529;-68
2022/03/07 09:49:37;;;;;;;19.95;14.60;;;;;;;;;;4995657;28;20084;-68
2022/03/07 09:52:05;;;;;;;17.90;13.63;;;;;;;;;;4979505;28;20150;-68
2022/03/07 09:54:32;;;;;;;14.85;12.55;;;;;;;;;;4994252;28;20068;-68
2022/03/07 09:57:00;;;;;;;22.98;15.05;;;;;;;;;;4996183;28;20086;-68
2022/03/07 09:59:28;;;;;;;19.20;14.75;;;;;;;;;;4996269;28;20084;-68
2022/03/07 10:02:12;;;;;;;16.45;12.93;;;;;;;;;;4977777;28;20445;-68
2022/03/07 10:04:42;;;;;;;18.10;13.50;;;;;;;;;;4986178;28;20533;-68
2022/03/07 10:07:11;;;;;;;19.45;13.85;;;;;;;;;;5010723;28;20074;-68
2022/03/07 10:09:39;;;;;;;17.00;13.48;;;;;;;;;;5009765;28;20514;-68
2022/03/07 10:12:09;;;;;;;15.27;12.32;;;;;;;;;;4976717;28;20062;-68
2022/03/07 10:14:42;;;;;;;21.58;14.65;;;;;;;;;;4982686;28;20078;-68
2022/03/07 10:17:24;;;;;;;16.87;12.47;;;;;;;;;;4994594;28;20149;-68
2022/03/07 10:19:53;;;;;;;14.50;12.80;;;;;;;;;;4982506;28;20050;-68
2022/03/07 10:22:26;;;;;;;16.13;13.77;;;;;;;;;;4976577;28;20047;-68
2022/03/07 10:25:04;;;;;;;19.02;13.95;;;;;;;;;;4976264;28;20129;-68
2022/03/07 10:27:37;;;;;;;15.95;14.25;;;;;;;;;;4976054;28;20047;-68
2022/03/07 10:30:18;;;;;;;18.05;14.38;;;;;;;;;;4976990;28;20130;-68
2022/03/07 10:32:52;;;;;;;20.77;12.88;;;;;;;;;;4975038;28;20074;-68
2022/03/07 10:35:24;;;;;;;;;;;;;;;;;;4975258;28;20446;-68
2022/03/07 10:38:13;;;;;;;15.18;13.35;;;;;;;;;;4998214;28;19961;-68
2022/03/07 10:40:52;;;;;;;17.13;13.20;;;;;;;;;;4972412;28;20105;-68
2022/03/07 10:43:22;;;;;;;26.55;13.77;;;;;;;;;;4976912;28;20051;-68
2022/03/07 10:45:51;;;;;;;16.83;13.75;;;;;;;;;;4994840;28;20632;-68
2022/03/07 10:48:20;;;;;;;14.98;13.35;;;;;;;;;;4995625;28;20054;-68
2022/03/07 10:51:18;;;;;;;16.02;14.10;;;;;;;;;;4994988;28;20050;-68
2022/03/07 10:53:46;;;;;;;19.13;12.75;;;;;;;;;;4995847;28;20133;-68
2022/03/07 10:56:15;;;;;;;14.93;12.80;;;;;;;;;;4994813;28;20145;-68
2022/03/07 10:58:53;;;;;;;15.32;13.77;;;;;;;;;;4994755;28;20073;-68
2022/03/07 11:01:32;;;;;;;17.90;14.30;;;;;;;;;;4994619;28;20085;-68
2022/03/07 11:04:00;;;;;;;20.65;13.82;;;;;;;;;;4993611;28;20133;-68
2022/03/07 11:06:28;;;;;;;20.15;13.98;;;;;;;;;;4994732;28;20054;-68
2022/03/07 11:08:56;;;;;;;16.35;14.07;;;;;;;;;;4995133;28;20142;-68
2022/03/07 11:11:23;;;;;;;21.65;16.48;;;;;;;;;;4995082;28;20073;-68
2022/03/07 11:13:52;;;;;;;14.15;12.40;;;;;;;;;;4994485;28;20038;-68
2022/03/07 11:16:21;;;;;;;16.70;12.07;;;;;;;;;;4993179;28;20050;-68
2022/03/07 11:18:53;;;;;;;16.27;14.43;;;;;;;;;;4994578;28;20046;-68
2022/03/07 11:21:29;;;;;;;14.27;12.35;;;;;;;;;;4993249;28;20532;-68
2022/03/07 11:23:58;;;;;;;16.83;12.85;;;;;;;;;;4994544;28;20057;-68
2022/03/07 11:26:26;;;;;;;12.93;11.43;;;;;;;;;;4994273;28;20592;-68
2022/03/07 11:28:57;;;;;;;15.75;13.40;;;;;;;;;;4993066;28;20414;-68
2022/03/07 11:31:28;;;;;;;18.25;13.65;;;;;;;;;;4993313;28;20065;-68
2022/03/07 11:33:56;;;;;;;17.73;12.43;;;;;;;;;;4994507;28;20084;-68
2022/03/07 11:36:24;;;;;;;14.45;12.15;;;;;;;;;;4992912;28;20146;-68
2022/03/07 11:38:57;;;;;;;16.02;12.48;;;;;;;;;;4993997;28;20457;-68
2022/03/07 11:41:29;;;;;;;15.77;13.27;;;;;;;;;;4994076;28;20042;-68
2022/03/07 11:44:04;;;;;;;14.57;13.05;;;;;;;;;;4994677;28;20396;-68
2022/03/07 11:46:34;;;;;;;23.45;14.45;;;;;;;;;;4993073;28;20046;-68
2022/03/07 11:49:04;;;;;;;17.40;13.65;;;;;;;;;;4993886;28;20054;-68
2022/03/07 11:51:35;;;;;;;17.42;14.23;;;;;;;;;;4993046;28;20080;-68
2022/03/07 11:54:04;;;;;;;16.02;13.20;;;;;;;;;;4994327;28;20081;-68
2022/03/07 11:56:38;;;;;;;16.88;13.45;;;;;;;;;;4995081;28;20133;-68
2022/03/07 11:59:11;;;;;;;19.33;13.38;;;;;;;;;;4993070;28;20057;-68
2022/03/07 12:01:38;;;;;;;15.63;13.50;;;;;;;;;;4994277;28;20109;-68
2022/03/07 12:04:15;;;;;;;19.58;15.68;;;;;;;;;;4994351;28;20050;-68
2022/03/07 12:06:52;;;;;;;15.70;12.65;;;;;;;;;;4994176;28;20054;-68
2022/03/07 12:09:23;;;;;;;16.38;12.80;;;;;;;;;;4993882;28;20054;-68
2022/03/07 12:11:58;;;;;;;16.33;14.63;;;;;;;;;;4998188;28;20050;-68
2022/03/07 12:14:32;;;;;;;15.75;13.70;;;;;;;;;;5000645;28;20054;-68
2022/03/07 12:17:01;;;;;;;17.40;14.48;;;;;;;;;;4999166;28;20494;-68
2022/03/07 12:19:30;;;;;;;16.55;14.75;;;;;;;;;;5000254;28;20050;-68
2022/03/07 12:21:57;;;;;;;17.73;14.27;;;;;;;;;;4999258;28;20108;-68
2022/03/07 12:24:25;;;;;;;19.05;14.02;;;;;;;;;;5000249;28;20046;-68
2022/03/07 12:26:56;;;;;;;18.73;14.27;;;;;;;;;;4998663;28;20072;-68
2022/03/07 12:29:25;;;;;;;16.48;14.00;;;;;;;;;;4999049;28;20081;-68
2022/03/07 12:31:53;;;;;;;18.08;13.55;;;;;;;;;;5001061;28;20054;-68
2022/03/07 12:34:28;;;;;;;21.48;14.82;;;;;;;;;;5000184;28;20170;-68
2022/03/07 12:37:05;;;;;;;16.38;14.02;;;;;;;;;;4998778;28;20405;-68
2022/03/07 12:39:55;;;;;;;19.48;14.25;;;;;;;;;;4999615;28;20070;-68
2022/03/07 12:42:27;;;;;;;23.65;14.13;;;;;;;;;;5000395;28;20510;-68
2022/03/07 12:45:00;;;;;;;17.50;15.43;;;;;;;;;;5000154;28;20058;-68
2022/03/07 12:47:38;;;;;;;16.17;14.48;;;;;;;;;;4998987;28;20046;-68
2022/03/07 12:50:08;;;;;;;18.77;15.63;;;;;;;;;;4998548;28;20054;-68
2022/03/07 12:52:38;;;;;;;20.05;15.32;;;;;;;;;;4999988;28;20046;-68
2022/03/07 12:55:07;;;;;;;17.85;15.57;;;;;;;;;;4998685;28;20065;-68
2022/03/07 12:57:34;;;;;;;15.25;13.48;;;;;;;;;;5000250;28;20434;-68
2022/03/07 13:00:07;;;;;;;14.68;13.05;;;;;;;;;;4998894;28;20118;-68
2022/03/07 13:02:42;;;;;;;17.95;14.07;;;;;;;;;;5000073;28;20042;-68
2022/03/07 13:05:12;;;;;;;18.25;14.57;;;;;;;;;;4999344;28;20054;-68
2022/03/07 13:07:59;;;;;;;17.77;13.52;;;;;;;;;;5000260;28;20050;-68
2022/03/07 13:10:27;;;;;;;19.75;15.23;;;;;;;;;;4999917;28;20088;-68
2022/03/07 13:12:58;;;;;;;20.45;15.32;;;;;;;;;;4998723;28;20121;-68
2022/03/07 13:15:28;;;;;;;16.33;13.90;;;;;;;;;;4998924;28;20506;-68
2022/03/07 13:18:06;;;;;;;20.33;13.77;;;;;;;;;;4995138;28;20461;-68
2022/03/07 13:20:34;;;;;;;17.60;14.63;;;;;;;;;;4980141;28;20050;-68
2022/03/07 13:23:04;;;;;;;20.67;14.77;;;;;;;;;;4977922;28;20521;-68
2022/03/07 13:25:42;;;;;;;16.75;14.98;;;;;;;;;;4977162;28;20055;-68
2022/03/07 13:28:10;;;;;;;22.30;15.27;;;;;;;;;;4977221;28;20078;-68
2022/03/07 13:30:38;;;;;;;16.13;14.32;;;;;;;;;;4977568;28;20054;-68
2022/03/07 13:33:08;;;;;;;20.50;14.88;;;;;;;;;;4987798;28;20058;-68
2022/03/07 13:35:53;;;;;;;19.27;13.85;;;;;;;;;;4977454;28;20114;-68
2022/03/07 13:38:22;;;;;;;18.23;14.18;;;;;;;;;;4983529;28;20050;-67
2022/03/07 13:40:50;;;;;;;16.67;13.40;;;;;;;;;;4976756;28;20042;-68
2022/03/07 13:43:26;;;;;;;17.85;13.20;;;;;;;;;;4975613;28;20050;-67
2022/03/07 13:45:54;;;;;;;17.95;13.30;;;;;;;;;;4976357;28;20109;-67
2022/03/07 13:48:24;;;;;;;18.80;14.60;;;;;;;;;;4994863;28;20050;-67
2022/03/07 13:50:52;;;;;;;25.60;13.02;;;;;;;;;;4994795;28;20563;-67
2022/03/07 13:53:20;;;;;;;16.20;14.02;;;;;;;;;;4995459;28;20047;-67
2022/03/07 13:55:50;;;;;;;17.83;13.82;;;;;;;;;;4996419;28;20058;-67
2022/03/07 13:58:29;;;;;;;15.45;13.15;;;;;;;;;;4995817;28;20051;-68
2022/03/07 14:01:11;;;;;;;24.85;12.80;;;;;;;;;;4996063;28;20142;-67
2022/03/07 14:04:18;;;;;;;17.92;12.70;;;;;;;;;;4982028;28;20047;-67
2022/03/07 14:06:46;;;;;;;16.45;12.80;;;;;;;;;;4977136;28;20059;-68
2022/03/07 14:09:33;;;;;;;17.95;14.20;;;;;;;;;;4975470;28;20494;-67
2022/03/07 14:12:01;;;;;;;18.27;12.77;;;;;;;;;;4975271;28;20130;-67
2022/03/07 14:14:44;;;;;;;16.90;13.60;;;;;;;;;;4977513;28;20074;-68
2022/03/07 14:17:15;;;;;;;16.00;13.18;;;;;;;;;;4976952;28;20118;-68
2022/03/07 14:19:43;;;;;;;15.57;13.98;;;;;;;;;;4976494;28;20088;-69
2022/03/07 14:22:10;;;;;;;17.13;14.45;;;;;;;;;;4988660;28;20072;-68
2022/03/07 14:24:38;;;;;;;16.30;11.95;;;;;;;;;;5010235;28;20134;-67
2022/03/07 14:27:06;;;;;;;16.77;14.05;;;;;;;;;;5010192;28;20054;-67
2022/03/07 14:29:37;;;;;;;17.48;13.15;;;;;;;;;;5010107;28;20053;-67
2022/03/07 14:32:05;;;;;;;18.67;13.82;;;;;;;;;;4998052;28;20034;-67
2022/03/07 14:34:33;;;;;;;20.75;13.35;;;;;;;;;;4994726;28;20053;-67